Costa Luminosa — ICGU — position and weather

sailwx.info

Track history (hours):
 
Tides and Currents Weather Stations Pressure Air Temp Water Temp Dewpoint Dewpoint Depression Visibility Wind Speed Wind Dir Waves Ship Positions

Costa Luminosa

Last reported at 2017-Mar-17 08:24 UTC. Time now 2017-Mar-24 19:56 UTC.
Position S 38°11' E 144°55'.

Length 294 m; draft 8 m.

Type: Passenger vessel. MMSI: 247257900.

Date/timePositionNaut miles runAvg speedWind from/ knotsBaromVisibWave heightAir tempDewpointWater temp
2017-Mar-17 08:24S 38°11' E 144°55'1516.8
2017-Mar-17 07:30S 37°56' E 144°56'5 5.4
2017-Mar-17 06:32S 37°51' E 144°56'0 0.0
2017-Mar-16 18:29S 37°51' E 144°56'0 0.0
2017-Mar-16 17:26S 37°51' E 144°56'0 0.0
2017-Mar-16 16:32S 37°51' E 144°56'0 0.0
2017-Mar-16 15:32S 37°51' E 144°56'0 0.0
2017-Mar-16 14:20S 37°51' E 144°56'0 0.0
2017-Mar-16 13:26S 37°51' E 144°56'0 0.0
2017-Mar-16 12:32S 37°51' E 144°56'0 0.0
2017-Mar-16 11:11S 37°51' E 144°56'  
2017-Mar-12 18:31S 33°51' E 151°14'1 0.5
2017-Mar-12 17:34S 33°51' E 151°15'9 8.9
2017-Mar-12 16:33S 33°51' E 151°26'1312.7
2017-Mar-12 15:33S 33°51' E 151°41'1211.1
2017-Mar-12 14:26S 33°51' E 151°56'1011.4
2017-Mar-12 13:33S 33°51' E 152°08'1212.5
2017-Mar-12 12:33S 33°51' E 152°23'1312.9
2017-Mar-12 11:33S 33°52' E 152°38'1312.7
2017-Mar-12 10:33S 33°52' E 152°53'1313.0
2017-Mar-12 09:33S 33°52' E 153°09'2813.5
2017-Mar-12 07:29S 33°53' E 153°43'2713.6
2017-Mar-12 05:29S 33°54' E 154°16'1313.8
2017-Mar-12 04:33S 33°54' E 154°31'2713.5
2017-Mar-12 02:33S 33°55' E 155°04'  
2017-Mar-09 11:04S 36°07' E 174°56'917.1
2017-Mar-09 10:34S 36°15' E 174°57'1414.0
2017-Mar-09 09:34S 36°29' E 174°59'1515.3
2017-Mar-09 08:33S 36°43' E 174°51'8 8.1
2017-Mar-09 07:33S 36°50' E 174°46'0 0.1
2017-Mar-09 02:24S 36°51' E 174°46'0 0.0
2017-Mar-09 01:30S 36°51' E 174°46'0 0.0
2017-Mar-09 00:18S 36°51' E 174°46'0 0.0
2017-Mar-08 23:30S 36°51' E 174°46'0 0.0
2017-Mar-08 22:30S 36°51' E 174°46'0 0.0
2017-Mar-08 21:30S 36°51' E 174°46'0 0.0
2017-Mar-08 20:30S 36°51' E 174°46'0 0.0
2017-Mar-08 19:30S 36°51' E 174°46'3 2.8
2017-Mar-08 18:31S 36°50' E 174°49'1010.8
2017-Mar-08 17:33S 36°40' E 174°54'1312.7
2017-Mar-08 16:33S 36°28' E 174°59'1212.0
2017-Mar-08 15:33S 36°16' E 174°58'  
Track history (hours):
 
Tides and Currents Weather Stations Pressure Air Temp Water Temp Dewpoint Dewpoint Depression Visibility Wind Speed Wind Dir Waves Ship Positions

Costa Luminosa

Last reported at 2017-Mar-17 08:24 UTC. Time now 2017-Mar-24 19:56 UTC.
Position S 38°11' E 144°55'.

Length 294 m; draft 8 m.

Type: Passenger vessel. MMSI: 247257900.

Date/timePositionNaut miles runAvg speedWind from/ knotsBaromVisibWave heightAir tempDewpointWater temp
2017-Mar-17 08:24S 38°11' E 144°55'1516.8
2017-Mar-17 07:30S 37°56' E 144°56'5 5.4
2017-Mar-17 06:32S 37°51' E 144°56'0 0.0
2017-Mar-16 18:29S 37°51' E 144°56'0 0.0
2017-Mar-16 17:26S 37°51' E 144°56'0 0.0
2017-Mar-16 16:32S 37°51' E 144°56'0 0.0
2017-Mar-16 15:32S 37°51' E 144°56'0 0.0
2017-Mar-16 14:20S 37°51' E 144°56'0 0.0
2017-Mar-16 13:26S 37°51' E 144°56'0 0.0
2017-Mar-16 12:32S 37°51' E 144°56'0 0.0
2017-Mar-16 11:11S 37°51' E 144°56'  
2017-Mar-12 18:31S 33°51' E 151°14'1 0.5
2017-Mar-12 17:34S 33°51' E 151°15'9 8.9
2017-Mar-12 16:33S 33°51' E 151°26'1312.7
2017-Mar-12 15:33S 33°51' E 151°41'1211.1
2017-Mar-12 14:26S 33°51' E 151°56'1011.4
2017-Mar-12 13:33S 33°51' E 152°08'1212.5
2017-Mar-12 12:33S 33°51' E 152°23'1312.9
2017-Mar-12 11:33S 33°52' E 152°38'1312.7
2017-Mar-12 10:33S 33°52' E 152°53'1313.0
2017-Mar-12 09:33S 33°52' E 153°09'2813.5
2017-Mar-12 07:29S 33°53' E 153°43'2713.6
2017-Mar-12 05:29S 33°54' E 154°16'1313.8
2017-Mar-12 04:33S 33°54' E 154°31'2713.5
2017-Mar-12 02:33S 33°55' E 155°04'  
2017-Mar-09 11:04S 36°07' E 174°56'917.1
2017-Mar-09 10:34S 36°15' E 174°57'1414.0
2017-Mar-09 09:34S 36°29' E 174°59'1515.3
2017-Mar-09 08:33S 36°43' E 174°51'8 8.1
2017-Mar-09 07:33S 36°50' E 174°46'0 0.1
2017-Mar-09 02:24S 36°51' E 174°46'0 0.0
2017-Mar-09 01:30S 36°51' E 174°46'0 0.0
2017-Mar-09 00:18S 36°51' E 174°46'0 0.0
2017-Mar-08 23:30S 36°51' E 174°46'0 0.0
2017-Mar-08 22:30S 36°51' E 174°46'0 0.0
2017-Mar-08 21:30S 36°51' E 174°46'0 0.0
2017-Mar-08 20:30S 36°51' E 174°46'0 0.0
2017-Mar-08 19:30S 36°51' E 174°46'3 2.8
2017-Mar-08 18:31S 36°50' E 174°49'1010.8
2017-Mar-08 17:33S 36°40' E 174°54'1312.7
2017-Mar-08 16:33S 36°28' E 174°59'1212.0
2017-Mar-08 15:33S 36°16' E 174°58'  

Dump ship's entire track history